Time;durP1;ratioP1;P1;durP2;ratioP2;P2;SDS_P1;SDS_P2;PMS_P1;PMS_P2;Temp;Humidity;BMP_temperature;BMP_pressure;BME280_temperature;BME280_humidity;BME280_pressure;Samples;Min_cycle;Max_cycle;Signal;HPM_P1;HPM_P2
2023/08/05 00:03:21;;;;;;;1.10;0.80;;;;;;;20.85;61.54;96680.47;10532478;28;20105;-29
2023/08/05 00:08:23;;;;;;;0.87;0.80;;;;;;;20.84;61.17;96678.81;10527363;28;20306;-29
2023/08/05 00:13:23;;;;;;;0.95;0.80;;;;;;;20.82;60.84;96690.66;10519367;28;20149;-29
2023/08/05 00:18:24;;;;;;;1.23;0.60;;;;;;;20.81;60.95;96683.91;10522208;28;20104;-29
2023/08/05 00:23:24;;;;;;;0.52;0.47;;;;;;;20.81;60.66;96686.44;10524950;28;20040;-29
2023/08/05 00:28:25;;;;;;;0.63;0.63;;;;;;;20.80;60.90;96682.22;10539005;28;20112;-28
2023/08/05 00:33:25;;;;;;;1.73;0.60;;;;;;;20.80;60.82;96666.94;10534335;28;20417;-29
2023/08/05 00:38:25;;;;;;;3.03;0.90;;;;;;;20.84;62.96;96666.06;10511863;28;20274;-29
2023/08/05 00:43:26;;;;;;;1.07;0.97;;;;;;;20.84;62.85;96660.13;10538592;28;20494;-29
2023/08/05 00:48:26;;;;;;;0.43;0.43;;;;;;;20.84;61.57;96677.94;10518102;28;20410;-30
2023/08/05 00:53:27;;;;;;;3.05;0.63;;;;;;;20.82;60.96;96674.56;10518883;28;20585;-30
2023/08/05 00:58:31;;;;;;;1.23;0.63;;;;;;;20.81;60.67;96671.19;10536943;28;20047;-28
2023/08/05 01:03:31;;;;;;;1.77;0.68;;;;;;;20.79;60.58;96660.19;10535724;28;20020;-29
2023/08/05 01:08:32;;;;;;;0.40;0.40;;;;;;;20.79;60.59;96660.19;10538510;28;20057;-29
2023/08/05 01:13:34;;;;;;;0.52;0.52;;;;;;;20.78;60.49;96658.50;10535528;28;20038;-29
2023/08/05 01:18:37;;;;;;;0.68;0.57;;;;;;;20.78;60.74;96658.50;10541687;28;20028;-30
2023/08/05 01:23:50;;;;;;;1.42;0.90;;;;;;;20.81;62.65;96661.00;10532011;28;20179;-29
2023/08/05 01:28:51;;;;;;;1.17;0.70;;;;;;;20.80;62.58;96656.78;10530744;28;20046;-29
2023/08/05 01:33:52;;;;;;;0.80;0.80;;;;;;;20.82;61.14;96662.69;10509877;28;20399;-29
2023/08/05 01:38:52;;;;;;;0.70;0.70;;;;;;;20.81;60.75;96668.63;10537161;28;20055;-29
2023/08/05 01:43:52;;;;;;;2.53;0.75;;;;;;;20.80;60.61;96666.94;10536790;28;20097;-29
2023/08/05 01:48:53;;;;;;;1.40;0.60;;;;;;;20.80;60.59;96661.84;10526539;28;20037;-29
2023/08/05 01:53:54;;;;;;;0.70;0.70;;;;;;;20.78;60.48;96661.03;10516064;28;20031;-29
2023/08/05 01:58:54;;;;;;;0.80;0.70;;;;;;;20.79;60.57;96659.34;10510040;28;20079;-29
2023/08/05 02:03:54;;;;;;;0.70;0.70;;;;;;;20.79;60.68;96655.09;10508694;28;20036;-29
2023/08/05 02:08:55;;;;;;;1.45;1.02;;;;;;;20.82;62.69;96657.59;10522999;28;20490;-29
2023/08/05 02:13:55;;;;;;;1.17;0.83;;;;;;;20.84;61.77;96647.41;10516136;28;20032;-29
2023/08/05 02:18:55;;;;;;;1.40;0.60;;;;;;;20.80;60.85;96638.13;10503755;28;20077;-29
2023/08/05 02:23:56;;;;;;;0.43;0.43;;;;;;;20.80;60.91;96646.59;10516676;28;20516;-29
2023/08/05 02:28:56;;;;;;;0.70;0.63;;;;;;;20.79;60.54;96634.72;10516641;28;20059;-29
2023/08/05 02:33:57;;;;;;;0.83;0.60;;;;;;;20.78;60.86;96638.13;10525968;28;20383;-29
2023/08/05 02:38:57;;;;;;;0.80;0.80;;;;;;;20.78;60.41;96643.22;10535821;28;20511;-29
2023/08/05 02:43:58;;;;;;;1.90;1.27;;;;;;;20.75;60.44;96633.09;10533083;28;20037;-29
2023/08/05 02:48:58;;;;;;;0.60;0.60;;;;;;;20.77;60.67;96628.81;10520091;28;20127;-29
2023/08/05 02:53:59;;;;;;;3.73;1.10;;;;;;;20.81;62.26;96627.91;10515007;28;20032;-29
2023/08/05 02:58:59;;;;;;;1.40;1.10;;;;;;;20.82;61.81;96624.50;10512104;28;20043;-29
2023/08/05 03:03:59;;;;;;;1.10;1.00;;;;;;;20.79;60.92;96629.66;10517530;28;20038;-29
2023/08/05 03:09:00;;;;;;;0.73;0.70;;;;;;;20.78;60.68;96625.41;10510749;28;20327;-29
2023/08/05 03:14:02;;;;;;;0.60;0.50;;;;;;;20.75;60.48;96611.88;10503760;28;20086;-29
2023/08/05 03:19:02;;;;;;;0.77;0.75;;;;;;;20.75;60.52;96606.78;10526389;28;20085;-29
2023/08/05 03:24:05;;;;;;;1.35;0.80;;;;;;;20.73;60.81;96599.16;10508169;28;20070;-29
2023/08/05 03:29:09;;;;;;;0.80;0.60;;;;;;;20.72;60.47;96587.31;10510075;28;20118;-29
2023/08/05 03:34:09;;;;;;;0.63;0.63;;;;;;;20.77;60.32;96616.09;10504770;28;20364;-29
2023/08/05 03:39:10;;;;;;;1.10;0.75;;;;;;;20.80;62.12;96633.88;10509862;28;20111;-29
2023/08/05 03:44:10;;;;;;;1.20;0.80;;;;;;;20.80;61.73;96630.50;10528231;28;20032;-29
2023/08/05 03:49:11;;;;;;;1.92;0.82;;;;;;;20.79;60.71;96628.81;10520313;28;20020;-30
2023/08/05 03:54:11;;;;;;;1.23;1.00;;;;;;;20.78;61.20;96648.31;10503315;28;20040;-29
2023/08/05 03:59:12;;;;;;;1.17;0.82;;;;;;;20.75;60.65;96638.19;10538070;28;20389;-28
2023/08/05 04:04:12;;;;;;;0.70;0.60;;;;;;;20.75;60.42;96638.19;10508413;28;20031;-29
2023/08/05 04:09:13;;;;;;;0.70;0.68;;;;;;;20.75;60.04;96642.41;10484406;28;1047979;-29
2023/08/05 04:14:15;;;;;;;0.75;0.70;;;;;;;20.73;60.49;96627.16;10545435;28;20562;-29
2023/08/05 04:19:16;;;;;;;0.70;0.57;;;;;;;20.74;60.48;96646.69;10516408;28;20024;-28
2023/08/05 04:24:19;;;;;;;1.08;0.98;;;;;;;20.78;61.99;96643.22;10536355;28;20402;-29
2023/08/05 04:29:22;;;;;;;1.30;1.15;;;;;;;20.80;61.90;96654.22;10513144;28;20030;-29
2023/08/05 04:34:22;;;;;;;1.35;0.80;;;;;;;20.77;60.55;96661.91;10519666;28;20085;-29
2023/08/05 04:39:23;;;;;;;2.23;0.60;;;;;;;20.76;60.55;96659.34;10530988;28;20076;-29
2023/08/05 04:44:25;;;;;;;0.80;0.80;;;;;;;20.75;60.43;96661.09;10521791;28;20040;-29
2023/08/05 04:49:25;;;;;;;1.17;0.80;;;;;;;20.74;60.34;96658.53;10531198;28;20031;-29
2023/08/05 04:54:25;;;;;;;0.80;0.80;;;;;;;20.74;60.25;96661.94;10528813;28;20027;-29
2023/08/05 04:59:26;;;;;;;2.00;0.80;;;;;;;20.69;60.45;96663.69;10526620;28;20751;-28
2023/08/05 05:04:26;;;;;;;1.20;0.90;;;;;;;20.73;60.24;96669.56;10533627;28;20274;-30
2023/08/05 05:09:27;;;;;;;1.30;1.10;;;;;;;20.76;61.53;96670.41;10543817;28;20036;-29
2023/08/05 05:14:31;;;;;;;2.17;1.13;;;;;;;20.78;61.17;96675.44;10545985;28;20042;-29
2023/08/05 05:19:31;;;;;;;2.72;1.02;;;;;;;20.73;60.87;96675.50;10530715;28;20028;-29
2023/08/05 05:24:32;;;;;;;0.77;0.77;;;;;;;20.75;60.41;96678.03;10528737;28;20069;-29
2023/08/05 05:29:32;;;;;;;1.20;1.03;;;;;;;20.71;60.43;96672.13;10538414;28;20028;-28
2023/08/05 05:34:32;;;;;;;0.70;0.63;;;;;;;20.72;60.28;96667.91;10534515;28;20031;-28
2023/08/05 05:39:33;;;;;;;1.40;1.30;;;;;;;20.72;60.17;96663.63;10528885;28;20050;-29
2023/08/05 05:44:33;;;;;;;1.23;0.63;;;;;;;20.69;60.46;96648.41;10534231;28;20286;-28
2023/08/05 05:49:34;;;;;;;0.88;0.70;;;;;;;20.71;60.25;96656.03;10534358;28;20335;-27
2023/08/05 05:54:37;;;;;;;2.00;1.27;;;;;;;20.75;61.29;96653.44;10545033;28;20032;-28
2023/08/05 05:59:39;;;;;;;1.45;1.30;;;;;;;20.76;61.75;96649.19;10542455;28;20028;-29
2023/08/05 06:04:39;;;;;;;1.20;1.10;;;;;;;20.75;61.12;96660.22;10529273;28;20047;-28
2023/08/05 06:09:40;;;;;;;0.70;0.70;;;;;;;20.74;60.52;96653.44;10533560;28;20081;-28
2023/08/05 06:14:40;;;;;;;1.53;0.93;;;;;;;20.73;60.26;96660.22;10534423;28;20024;-28
2023/08/05 06:19:40;;;;;;;1.07;0.97;;;;;;;20.71;61.65;96656.03;10530238;28;20077;-29
2023/08/05 06:24:41;;;;;;;3.58;2.63;;;;;;;20.68;61.63;96656.03;10536724;28;20473;-29
2023/08/05 06:29:41;;;;;;;3.03;2.23;;;;;;;20.78;61.35;96658.50;10532366;28;20039;-28
2023/08/05 06:34:42;;;;;;;6.37;2.10;;;;;;;20.71;61.12;96640.78;10537672;28;20681;-29
2023/08/05 06:39:42;;;;;;;3.85;2.88;;;;;;;20.76;61.27;96644.94;10540072;28;20469;-28
2023/08/05 06:44:45;;;;;;;3.83;2.33;;;;;;;20.72;61.83;96638.19;10538407;28;20093;-28
2023/08/05 06:49:45;;;;;;;4.60;2.78;;;;;;;20.54;61.79;96648.56;10531053;28;20028;-29
2023/08/05 06:54:46;;;;;;;4.25;2.55;;;;;;;20.61;61.74;96645.09;10531650;28;20044;-28
2023/08/05 06:59:46;;;;;;;3.90;2.50;;;;;;;20.59;61.89;96639.19;10528887;28;20036;-29
2023/08/05 07:04:47;;;;;;;4.10;2.87;;;;;;;20.55;61.83;96632.44;10527365;28;20278;-28
2023/08/05 07:09:47;;;;;;;5.93;2.90;;;;;;;20.57;61.77;96643.41;10534617;28;20296;-28
2023/08/05 07:14:48;;;;;;;2.78;2.55;;;;;;;20.55;61.27;96640.06;10536352;28;20020;-28
2023/08/05 07:19:48;;;;;;;4.03;2.97;;;;;;;20.57;61.05;96648.50;10523759;28;20035;-30
2023/08/05 07:24:49;;;;;;;3.87;2.80;;;;;;;20.54;61.03;96633.28;10533375;28;20385;-27
2023/08/05 07:29:49;;;;;;;6.93;2.50;;;;;;;20.59;61.29;96626.47;10517593;28;20030;-28
2023/08/05 07:34:54;;;;;;;7.43;3.03;;;;;;;20.59;60.62;96639.19;10528251;28;20055;-29
2023/08/05 07:39:56;;;;;;;5.60;3.15;;;;;;;20.52;60.24;96632.47;10530072;28;20028;-29
2023/08/05 07:44:57;;;;;;;9.50;3.25;;;;;;;20.52;60.63;96627.38;10525887;28;20033;-29
2023/08/05 07:49:58;;;;;;;9.55;3.97;;;;;;;20.55;61.49;96641.78;10531583;28;20032;-29
2023/08/05 07:54:58;;;;;;;4.20;2.80;;;;;;;20.48;61.54;96619.78;10526162;28;20044;-28
2023/08/05 07:59:59;;;;;;;5.22;2.53;;;;;;;20.52;61.05;96627.38;10534504;28;20032;-29
2023/08/05 08:05:03;;;;;;;2.90;2.40;;;;;;;20.53;60.89;96626.53;10530019;28;20115;-28
2023/08/05 08:10:04;;;;;;;4.95;3.10;;;;;;;20.48;60.95;96607.91;10533129;28;20061;-29
2023/08/05 08:15:05;;;;;;;9.23;3.30;;;;;;;20.55;60.83;96604.44;10527302;28;20028;-28
2023/08/05 08:20:05;;;;;;;9.73;3.15;;;;;;;20.53;60.78;96588.38;10524914;28;20081;-28
2023/08/05 08:25:06;;;;;;;11.90;3.60;;;;;;;20.55;60.95;96573.09;10520864;28;20059;-29
2023/08/05 08:30:07;;;;;;;6.60;3.00;;;;;;;20.51;60.53;96563.81;10532242;28;20124;-28
2023/08/05 08:35:08;;;;;;;13.65;4.95;;;;;;;20.53;60.40;96569.72;10519860;28;20040;-28
2023/08/05 08:40:09;;;;;;;8.77;3.58;;;;;;;20.52;60.08;96583.28;10523977;28;20505;-29
2023/08/05 08:45:14;;;;;;;5.32;2.95;;;;;;;20.50;60.77;96580.78;10545391;28;20036;-28
2023/08/05 08:50:16;;;;;;;4.05;2.80;;;;;;;20.54;60.75;96579.06;10529983;28;20073;-28
2023/08/05 08:55:18;;;;;;;6.70;2.83;;;;;;;20.57;60.84;96573.91;10529541;28;20063;-29
2023/08/05 09:00:19;;;;;;;4.60;2.88;;;;;;;20.58;60.74;96579.00;10543639;28;20119;-28
2023/08/05 09:05:19;;;;;;;5.40;3.10;;;;;;;20.57;60.88;96577.28;10535432;28;20084;-28
2023/08/05 09:10:22;;;;;;;5.18;3.00;;;;;;;20.60;60.26;96573.88;10532029;28;20040;-28
2023/08/05 09:15:22;;;;;;;4.85;2.67;;;;;;;20.53;60.52;96565.47;10529442;28;20039;-27
2023/08/05 09:20:24;;;;;;;4.77;2.60;;;;;;;20.62;59.57;96570.47;10528830;28;20058;-28
2023/08/05 09:25:25;;;;;;;6.47;2.53;;;;;;;20.56;59.62;96562.06;10537341;28;20501;-28
2023/08/05 09:30:25;;;;;;;3.53;2.47;;;;;;;20.61;59.64;96550.97;10539482;28;20036;-29
2023/08/05 09:35:29;;;;;;;4.93;2.33;;;;;;;20.63;59.04;96544.16;10515706;28;20076;-28
2023/08/05 09:40:36;;;;;;;2.88;2.58;;;;;;;20.68;59.22;96544.97;10539743;28;20426;-28
2023/08/05 09:45:38;;;;;;;5.90;2.75;;;;;;;20.73;58.82;96550.81;10529190;28;20028;-29
2023/08/05 09:50:40;;;;;;;5.47;2.90;;;;;;;20.72;59.01;96531.34;10517182;28;20043;-28
2023/08/05 09:55:41;;;;;;;8.90;2.97;;;;;;;20.77;58.90;96527.03;10519151;28;20042;-29
2023/08/05 10:00:42;;;;;;;5.82;2.50;;;;;;;20.60;59.75;96531.50;10525098;28;20516;-28
2023/08/05 10:05:45;;;;;;;7.10;2.97;;;;;;;20.57;59.75;96526.41;10522124;28;20470;-29
2023/08/05 10:10:47;;;;;;;4.43;2.67;;;;;;;20.59;60.06;96524.72;10528681;28;20028;-28
2023/08/05 10:15:50;;;;;;;6.90;2.33;;;;;;;20.58;60.27;96515.41;10538535;28;20030;-28
2023/08/05 10:20:52;;;;;;;7.30;2.47;;;;;;;20.58;60.27;96517.97;10530722;28;20384;-28
2023/08/05 10:25:58;;;;;;;4.25;2.50;;;;;;;20.54;60.16;96506.13;10552308;28;20027;-29
2023/08/05 10:31:02;;;;;;;;;;;;;;;20.57;61.05;96506.06;10550823;28;20028;-29
2023/08/05 10:36:07;;;;;;;5.40;3.10;;;;;;;20.58;60.86;96495.06;10538543;28;20003;-29
2023/08/05 10:41:10;;;;;;;9.40;3.30;;;;;;;20.59;61.49;96484.03;10528609;28;20497;-28
2023/08/05 10:46:14;;;;;;;4.30;2.10;;;;;;;20.60;60.42;96478.06;10554413;28;20035;-29
2023/08/05 10:51:18;;;;;;;3.97;2.90;;;;;;;20.60;60.46;96470.44;10534839;28;20035;-28
2023/08/05 10:56:18;;;;;;;6.43;2.33;;;;;;;20.59;60.23;96468.75;10544806;28;20544;-29
2023/08/05 11:01:19;;;;;;;4.28;1.95;;;;;;;20.59;60.41;96462.81;10549756;28;20036;-28
2023/08/05 11:06:24;;;;;;;3.20;2.03;;;;;;;20.59;60.28;96463.69;10531321;28;20146;-28
2023/08/05 11:11:25;;;;;;;4.15;2.38;;;;;;;20.59;60.31;96468.75;10537050;28;20347;-28
2023/08/05 11:16:25;;;;;;;4.57;2.37;;;;;;;20.62;61.50;96458.53;10542425;28;20080;-29
2023/08/05 11:21:25;;;;;;;4.73;2.70;;;;;;;20.60;62.00;96450.09;10546481;28;20398;-29
2023/08/05 11:26:26;;;;;;;3.05;2.30;;;;;;;20.62;61.68;96448.38;10537365;28;20582;-28
2023/08/05 11:31:26;;;;;;;3.13;2.13;;;;;;;20.61;60.68;96436.50;10537922;28;20406;-28
2023/08/05 11:36:29;;;;;;;2.75;2.08;;;;;;;20.61;60.37;96436.50;10545654;28;20323;-29
2023/08/05 11:41:29;;;;;;;2.28;1.73;;;;;;;20.61;60.62;96430.56;10551087;28;20048;-29
2023/08/05 11:46:30;;;;;;;5.13;2.00;;;;;;;20.58;60.36;96421.31;10536339;28;20035;-29
2023/08/05 11:51:47;;;;;;;2.30;2.05;;;;;;;20.60;60.68;96437.38;10538089;28;20066;-29
2023/08/05 11:56:47;;;;;;;3.08;1.83;;;;;;;20.61;60.52;96422.94;10539088;28;20035;-29
2023/08/05 12:01:48;;;;;;;1.80;1.50;;;;;;;20.59;60.20;96422.97;10524182;28;20036;-29
2023/08/05 12:06:48;;;;;;;2.93;2.17;;;;;;;20.65;62.27;96411.88;10547837;28;20063;-29
2023/08/05 12:11:55;;;;;;;2.50;1.95;;;;;;;20.64;61.74;96395.75;10527017;28;20321;-29
2023/08/05 12:16:59;;;;;;;2.50;1.77;;;;;;;20.64;60.64;96394.94;10529966;28;20032;-29
2023/08/05 12:21:59;;;;;;;3.65;1.73;;;;;;;20.61;60.40;96405.13;10540311;28;20048;-28
2023/08/05 12:26:59;;;;;;;1.73;1.63;;;;;;;20.62;60.24;96382.22;10538411;28;20462;-28
2023/08/05 12:32:00;;;;;;;2.47;1.83;;;;;;;20.61;60.69;96385.63;10540825;28;20023;-29
2023/08/05 12:37:00;;;;;;;2.93;1.80;;;;;;;20.62;60.44;96378.88;10559040;28;20039;-28
2023/08/05 12:42:00;;;;;;;2.43;1.50;;;;;;;20.60;60.24;96363.59;10551163;28;20110;-28
2023/08/05 12:47:01;;;;;;;1.73;1.60;;;;;;;20.60;60.41;96367.84;10537439;28;20036;-29
2023/08/05 12:52:04;;;;;;;2.90;2.10;;;;;;;20.62;61.90;96351.69;10531490;28;20032;-28
2023/08/05 12:57:05;;;;;;;2.55;2.33;;;;;;;20.66;61.68;96353.34;10552622;28;20019;-28
2023/08/05 13:02:05;;;;;;;2.45;1.88;;;;;;;20.67;60.88;96352.50;10528385;28;20043;-29
2023/08/05 13:07:06;;;;;;;1.58;1.48;;;;;;;20.64;60.52;96338.97;10542747;28;20040;-28
2023/08/05 13:12:07;;;;;;;3.90;2.17;;;;;;;20.63;60.25;96338.13;10532920;28;20444;-28
2023/08/05 13:17:07;;;;;;;1.52;1.42;;;;;;;20.62;60.40;96340.72;10529035;28;20105;-29
2023/08/05 13:22:08;;;;;;;2.60;1.57;;;;;;;20.61;60.34;96324.59;10534670;28;20558;-28
2023/08/05 13:27:08;;;;;;;1.93;1.73;;;;;;;20.61;60.21;96319.50;10530134;28;20036;-29
2023/08/05 13:32:09;;;;;;;2.27;1.87;;;;;;;20.60;60.39;96312.75;10537718;28;20042;-29
2023/08/05 13:37:09;;;;;;;1.97;1.40;;;;;;;20.61;60.54;96301.69;10531275;28;20042;-28
2023/08/05 13:42:09;;;;;;;2.13;1.85;;;;;;;20.63;62.02;96287.25;10545489;28;20085;-29
2023/08/05 13:47:10;;;;;;;2.00;1.63;;;;;;;20.69;61.77;96282.06;10540899;28;20040;-30
2023/08/05 13:52:10;;;;;;;1.70;1.60;;;;;;;20.65;60.70;96267.69;10543747;28;20102;-30
2023/08/05 13:57:11;;;;;;;1.83;1.50;;;;;;;20.63;60.40;96266.91;10545787;28;20060;-28
2023/08/05 14:02:11;;;;;;;1.40;1.30;;;;;;;20.60;60.03;96261.88;10558883;28;20293;-28
2023/08/05 14:07:11;;;;;;;2.40;1.60;;;;;;;20.62;60.36;96280.47;10541210;28;20297;-28
2023/08/05 14:12:12;;;;;;;1.43;1.33;;;;;;;20.61;60.57;96271.19;10537552;28;20410;-28
2023/08/05 14:17:12;;;;;;;2.10;1.63;;;;;;;20.61;60.34;96257.59;10544175;28;20236;-29
2023/08/05 14:22:12;;;;;;;1.73;1.60;;;;;;;20.61;60.56;96248.28;10530490;28;20418;-28
2023/08/05 14:27:13;;;;;;;2.13;1.93;;;;;;;20.65;61.34;96238.91;10540691;28;20047;-29
2023/08/05 14:32:13;;;;;;;2.17;2.08;;;;;;;20.65;61.80;96234.63;10527709;28;20117;-29
2023/08/05 14:37:13;;;;;;;1.53;1.43;;;;;;;20.68;60.90;96229.53;10533257;28;20057;-28
2023/08/05 14:42:14;;;;;;;1.77;1.67;;;;;;;20.65;60.65;96219.38;10536017;28;20047;-29
2023/08/05 14:47:14;;;;;;;2.03;1.90;;;;;;;20.62;60.56;96216.06;10539136;28;20054;-29
2023/08/05 14:52:14;;;;;;;1.57;1.20;;;;;;;20.62;60.54;96211.81;10530411;28;20115;-28
2023/08/05 14:57:15;;;;;;;1.80;1.33;;;;;;;20.62;60.37;96204.16;10556670;28;20027;-28
2023/08/05 15:02:15;;;;;;;1.77;1.63;;;;;;;20.63;60.58;96198.22;10538276;28;20036;-29
2023/08/05 15:07:16;;;;;;;1.40;1.30;;;;;;;20.61;60.42;96196.56;10542397;28;20031;-28
2023/08/05 15:12:16;;;;;;;1.38;1.27;;;;;;;20.60;60.39;96189.78;10544031;28;20046;-29
2023/08/05 15:17:17;;;;;;;2.00;1.80;;;;;;;20.67;61.98;96182.06;10527649;28;20452;-28
2023/08/05 15:22:18;;;;;;;1.52;1.42;;;;;;;20.70;62.00;96176.91;10539116;28;20086;-29
2023/08/05 15:27:18;;;;;;;2.10;1.88;;;;;;;20.69;60.74;96159.97;10535769;28;20445;-28
2023/08/05 15:32:19;;;;;;;1.60;1.50;;;;;;;20.65;60.49;96155.78;10527743;28;20064;-29
2023/08/05 15:37:19;;;;;;;1.40;1.30;;;;;;;20.64;60.67;96158.38;10536660;28;20044;-29
2023/08/05 15:42:20;;;;;;;1.23;1.20;;;;;;;20.62;60.76;96148.22;10542324;28;20039;-28
2023/08/05 15:47:20;;;;;;;1.30;1.20;;;;;;;20.61;60.62;96146.53;10540450;28;20047;-28
2023/08/05 15:52:20;;;;;;;1.30;1.20;;;;;;;20.61;60.54;96146.53;10531866;28;20033;-28
2023/08/05 15:57:21;;;;;;;1.77;1.37;;;;;;;20.57;60.52;96139.81;10546858;28;20032;-28
2023/08/05 16:02:21;;;;;;;1.87;1.77;;;;;;;20.68;62.20;96155.75;10536634;28;20032;-28
2023/08/05 16:07:22;;;;;;;1.80;1.70;;;;;;;20.71;62.41;96147.22;10534303;28;20119;-29
2023/08/05 16:12:22;;;;;;;1.88;1.40;;;;;;;20.72;61.58;96151.44;10526704;28;20290;-29
2023/08/05 16:17:23;;;;;;;1.97;1.77;;;;;;;20.69;61.20;96144.72;10519411;28;20044;-28
2023/08/05 16:22:23;;;;;;;2.58;1.40;;;;;;;20.64;60.65;96135.47;10545526;28;20028;-29
2023/08/05 16:27:24;;;;;;;1.40;1.30;;;;;;;20.64;60.81;96136.31;10528353;28;20062;-29
2023/08/05 16:32:24;;;;;;;1.27;1.17;;;;;;;20.63;60.51;96149.88;10537017;28;20059;-29
2023/08/05 16:37:24;;;;;;;1.50;1.40;;;;;;;20.60;60.67;96138.94;10533933;28;20035;-29
2023/08/05 16:42:25;;;;;;;1.37;1.20;;;;;;;20.61;60.67;96149.09;10540425;28;20408;-28
2023/08/05 16:47:25;;;;;;;1.23;1.17;;;;;;;20.58;60.55;96131.34;10531720;28;20028;-28
2023/08/05 16:52:25;;;;;;;1.67;1.50;;;;;;;20.69;62.38;96133.69;10548768;28;20040;-28
2023/08/05 16:57:26;;;;;;;1.40;1.30;;;;;;;20.73;62.49;96133.59;10536997;28;20032;-28
2023/08/05 17:02:26;;;;;;;1.47;1.37;;;;;;;20.72;61.67;96133.66;10546050;28;20505;-29
2023/08/05 17:07:26;;;;;;;1.50;1.20;;;;;;;20.67;60.89;96115.91;10543010;28;20043;-28
2023/08/05 17:12:27;;;;;;;1.63;1.43;;;;;;;20.65;60.75;96101.56;10554932;28;20394;-28
2023/08/05 17:17:27;;;;;;;1.37;1.20;;;;;;;20.63;60.54;96104.09;10562642;28;20028;-29
2023/08/05 17:22:27;;;;;;;1.07;1.07;;;;;;;20.62;60.67;96102.44;10542779;28;20031;-28
2023/08/05 17:27:28;;;;;;;1.50;1.10;;;;;;;20.61;60.80;96103.31;10544807;28;20032;-28
2023/08/05 17:32:28;;;;;;;1.17;1.08;;;;;;;20.58;60.57;96095.75;10537459;28;20047;-28
2023/08/05 17:37:28;;;;;;;1.53;1.43;;;;;;;20.64;62.26;96095.59;10548509;28;20023;-28
2023/08/05 17:42:29;;;;;;;1.50;1.40;;;;;;;20.71;62.56;96107.34;10533519;28;20035;-29
2023/08/05 17:47:29;;;;;;;1.40;1.30;;;;;;;20.69;61.98;96098.91;10552253;28;20085;-28
2023/08/05 17:52:30;;;;;;;1.33;1.23;;;;;;;20.65;61.46;96094.72;10540260;28;20038;-29
2023/08/05 17:57:30;;;;;;;1.30;1.20;;;;;;;20.64;60.81;96094.78;10536562;28;20085;-29
2023/08/05 18:02:30;;;;;;;1.07;1.07;;;;;;;20.63;60.88;96099.03;10538666;28;20650;-28
2023/08/05 18:07:31;;;;;;;1.50;1.40;;;;;;;20.61;60.75;96103.31;10553303;28;20436;-29
2023/08/05 18:12:31;;;;;;;1.20;1.07;;;;;;;20.59;60.81;96094.88;10552991;28;20482;-28
2023/08/05 18:17:32;;;;;;;1.27;1.17;;;;;;;20.61;60.71;96095.69;10551234;28;20444;-29
2023/08/05 18:22:32;;;;;;;1.20;1.10;;;;;;;20.61;60.57;96099.91;10533534;28;20036;-28
2023/08/05 18:27:32;;;;;;;1.70;1.50;;;;;;;20.68;62.57;96104.88;10547895;28;20035;-28
2023/08/05 18:32:33;;;;;;;2.35;1.33;;;;;;;20.73;62.41;96110.69;10533343;28;20039;-28
2023/08/05 18:37:33;;;;;;;1.60;1.50;;;;;;;20.71;61.81;96112.44;10538117;28;20398;-29
2023/08/05 18:42:34;;;;;;;1.33;1.23;;;;;;;20.67;61.14;96110.84;10554455;28;20036;-29
2023/08/05 18:47:34;;;;;;;1.13;1.03;;;;;;;20.61;60.72;96116.03;10528854;28;20394;-28
2023/08/05 18:52:34;;;;;;;1.27;1.17;;;;;;;20.62;60.91;96117.69;10554892;28;20114;-28
2023/08/05 18:57:35;;;;;;;1.40;1.30;;;;;;;20.60;60.67;96108.41;10530464;28;20024;-29
2023/08/05 19:02:35;;;;;;;1.83;1.20;;;;;;;20.61;60.83;96112.63;10534970;28;20024;-29
2023/08/05 19:07:35;;;;;;;1.20;1.10;;;;;;;20.59;60.59;96122.00;10555049;28;20364;-29
2023/08/05 19:12:36;;;;;;;1.30;1.20;;;;;;;20.61;61.33;96126.19;10535947;28;20313;-29
2023/08/05 19:17:36;;;;;;;2.13;1.80;;;;;;;20.76;61.18;96141.19;10521986;28;20036;-28
2023/08/05 19:22:36;;;;;;;1.73;1.40;;;;;;;20.75;61.03;96144.59;10530163;28;20647;-28
2023/08/05 19:27:37;;;;;;;4.40;1.47;;;;;;;20.71;60.60;96142.97;10528810;28;20304;-28
2023/08/05 19:32:37;;;;;;;3.40;1.07;;;;;;;20.67;60.46;96151.53;10539021;28;20092;-28
2023/08/05 19:37:37;;;;;;;6.17;1.10;;;;;;;20.64;60.43;96151.56;10540520;28;20096;-29
2023/08/05 19:42:38;;;;;;;3.47;1.03;;;;;;;20.64;60.28;96156.66;10532927;28;20040;-30
2023/08/05 19:47:40;;;;;;;2.13;1.07;;;;;;;20.60;60.31;96147.41;10527793;28;20097;-29
2023/08/05 19:52:41;;;;;;;1.48;1.20;;;;;;;20.63;59.68;96157.53;10525601;28;20309;-28
2023/08/05 19:57:41;;;;;;;2.83;1.87;;;;;;;20.70;59.66;96159.09;10530691;28;20047;-29
2023/08/05 20:02:42;;;;;;;3.03;1.60;;;;;;;20.73;59.15;96151.41;10529175;28;20032;-29
2023/08/05 20:07:42;;;;;;;2.88;1.30;;;;;;;20.74;59.25;96148.03;10533259;28;20374;-29
2023/08/05 20:12:43;;;;;;;2.03;1.63;;;;;;;20.71;59.43;96148.06;10515775;28;20036;-28
2023/08/05 20:17:43;;;;;;;2.50;1.40;;;;;;;20.67;59.78;96143.91;10546036;28;20030;-28
2023/08/05 20:22:44;;;;;;;2.27;1.57;;;;;;;20.61;60.15;96135.50;10503908;28;20289;-28
2023/08/05 20:27:44;;;;;;;1.63;1.15;;;;;;;20.62;59.88;96143.13;10525948;28;20039;-29
2023/08/05 20:32:46;;;;;;;2.10;1.00;;;;;;;20.61;59.92;96141.47;10527349;28;20039;-28
2023/08/05 20:37:48;;;;;;;1.35;1.15;;;;;;;20.61;59.79;96135.50;10520760;28;20058;-28
2023/08/05 20:42:48;;;;;;;2.53;1.40;;;;;;;20.61;60.10;96135.50;10534694;28;20032;-29
2023/08/05 20:47:50;;;;;;;1.30;1.20;;;;;;;20.70;59.06;96141.28;10528607;28;20032;-28
2023/08/05 20:52:51;;;;;;;1.45;1.27;;;;;;;20.73;58.15;96128.50;10533239;28;20035;-28
2023/08/05 20:57:53;;;;;;;2.10;1.50;;;;;;;20.73;58.80;96120.06;10534660;28;20777;-28
2023/08/05 21:02:56;;;;;;;1.23;1.00;;;;;;;20.68;59.36;96119.28;10533535;28;20043;-27
2023/08/05 21:07:56;;;;;;;4.00;1.27;;;;;;;20.65;59.50;96110.00;10532613;28;20084;-29
2023/08/05 21:12:57;;;;;;;0.95;0.88;;;;;;;20.63;59.86;96099.03;10533386;28;20042;-28
2023/08/05 21:17:57;;;;;;;2.63;1.17;;;;;;;20.61;59.57;96100.75;10535177;28;20044;-28
2023/08/05 21:22:57;;;;;;;1.13;1.00;;;;;;;20.61;59.63;96098.22;10537801;28;20101;-29
2023/08/05 21:27:58;;;;;;;1.20;1.10;;;;;;;20.59;59.84;96099.97;10532549;28;20036;-28
2023/08/05 21:32:58;;;;;;;2.33;1.30;;;;;;;20.59;59.80;96101.66;10537339;28;20028;-29
2023/08/05 21:37:58;;;;;;;2.53;1.50;;;;;;;20.69;59.94;96105.69;10521576;28;20027;-28
2023/08/05 21:43:00;;;;;;;2.93;1.20;;;;;;;20.71;60.05;96120.06;10537409;28;20339;-29
2023/08/05 21:48:00;;;;;;;4.15;1.45;;;;;;;20.66;59.49;96124.44;10536956;28;20709;-29
2023/08/05 21:53:00;;;;;;;1.13;1.00;;;;;;;20.65;59.91;96111.72;10537882;28;20092;-30
2023/08/05 21:58:02;;;;;;;1.30;1.17;;;;;;;20.63;59.76;96119.38;10529848;28;20131;-28
2023/08/05 22:03:03;;;;;;;2.55;1.20;;;;;;;20.58;59.87;96112.69;10545550;28;20044;-28
2023/08/05 22:08:04;;;;;;;1.58;1.40;;;;;;;20.61;59.78;96125.34;10531403;28;20406;-29
2023/08/05 22:13:05;;;;;;;1.45;1.27;;;;;;;20.59;59.66;96112.69;10521603;28;20032;-29
2023/08/05 22:18:05;;;;;;;0.80;0.80;;;;;;;20.58;59.84;96111.00;10532580;28;20040;-28
2023/08/05 22:23:05;;;;;;;2.97;1.38;;;;;;;20.65;59.22;96116.81;10532810;28;20043;-28
2023/08/05 22:28:06;;;;;;;1.60;1.13;;;;;;;20.69;59.42;96111.63;10535444;28;20036;-29
2023/08/05 22:33:06;;;;;;;1.30;1.00;;;;;;;20.70;58.79;96120.09;10533324;28;20494;-28
2023/08/05 22:38:06;;;;;;;1.37;1.20;;;;;;;20.63;59.38;96119.38;10532403;28;20375;-29
2023/08/05 22:43:07;;;;;;;1.20;0.90;;;;;;;20.49;59.66;96101.00;10533027;28;20834;-29
2023/08/05 22:48:07;;;;;;;1.57;1.47;;;;;;;20.47;59.38;96092.53;10534112;28;20032;-28
2023/08/05 22:53:08;;;;;;;2.17;1.07;;;;;;;20.44;59.46;96097.69;10534919;28;20040;-28
2023/08/05 22:58:08;;;;;;;1.10;0.87;;;;;;;20.43;59.08;96084.97;10523449;28;20036;-28
2023/08/05 23:03:08;;;;;;;0.70;0.70;;;;;;;20.42;59.01;96079.94;10522324;28;20283;-28
2023/08/05 23:08:09;;;;;;;1.08;0.95;;;;;;;20.38;58.77;96072.34;10523323;28;20046;-29
2023/08/05 23:13:09;;;;;;;2.50;1.10;;;;;;;20.51;58.97;96062.81;10528304;28;20468;-28
2023/08/05 23:18:10;;;;;;;2.35;1.40;;;;;;;20.59;59.63;96073.69;10535645;28;20028;-28